createdAt,value
2019-02-11T00:00:16.929Z,0.7
2019-02-11T00:01:06.991Z,0.8
2019-02-11T00:01:56.785Z,0.7
2019-02-11T00:02:47.098Z,0.7
2019-02-11T00:03:36.889Z,0.6
2019-02-11T00:04:26.948Z,0.6
2019-02-11T00:05:17.003Z,0.6
2019-02-11T00:06:07.347Z,0.7
2019-02-11T00:06:57.129Z,0.6
2019-02-11T00:07:46.891Z,0.6
2019-02-11T00:08:37.510Z,0.6
2019-02-11T00:09:27.305Z,0.6
2019-02-11T00:10:17.633Z,0.6
2019-02-11T00:11:07.701Z,0.6
2019-02-11T00:11:57.188Z,0.7
2019-02-11T00:12:47.251Z,0.7
2019-02-11T00:13:37.869Z,0.7
2019-02-11T00:14:27.656Z,0.7
2019-02-11T00:15:17.703Z,0.6
2019-02-11T00:16:08.041Z,0.6
2019-02-11T00:16:58.146Z,0.6
2019-02-11T00:17:48.200Z,0.6
2019-02-11T00:18:38.258Z,0.6
2019-02-11T00:19:28.328Z,0.6
2019-02-11T00:20:18.338Z,0.6
2019-02-11T00:21:08.110Z,0.6
2019-02-11T00:21:58.477Z,0.6
2019-02-11T00:22:48.238Z,0.6
2019-02-11T00:23:38.547Z,0.5
2019-02-11T00:24:28.352Z,0.5
2019-02-11T00:25:17.845Z,0.4
2019-02-11T00:26:08.469Z,0.5
2019-02-11T00:26:58.815Z,0.5
2019-02-11T00:27:48.582Z,0.5
2019-02-11T00:28:38.912Z,0.4
2019-02-11T00:29:28.692Z,0.4
2019-02-11T00:30:19.027Z,0.4
2019-02-11T00:31:09.190Z,0.4
2019-02-11T00:31:59.195Z,0.4
2019-02-11T00:32:49.266Z,0.4
2019-02-11T00:33:39.272Z,0.4
2019-02-11T00:34:29.110Z,0.4
2019-02-11T00:35:19.389Z,0.3
2019-02-11T00:36:09.439Z,0.3
2019-02-11T00:36:59.244Z,0.3
2019-02-11T00:37:49.830Z,0.3
2019-02-11T00:38:39.332Z,0.2
2019-02-11T00:39:29.533Z,0.2
2019-02-11T00:40:19.731Z,0.1
2019-02-11T00:41:09.246Z,0.2
2019-02-11T00:41:59.288Z,0.1
2019-02-11T00:42:49.629Z,0.1
2019-02-11T00:43:39.967Z,0.1
2019-02-11T00:44:29.739Z,0.1
2019-02-11T00:45:19.796Z,0
2019-02-11T00:46:09.856Z,0
2019-02-11T00:46:59.916Z,0
2019-02-11T00:47:50.248Z,-0.1
2019-02-11T00:48:40.319Z,-0.1
2019-02-11T00:49:30.088Z,-0.1
2019-02-11T00:50:20.157Z,-0.1
2019-02-11T00:51:09.645Z,-0.1
2019-02-11T00:51:59.996Z,-0.1
2019-02-11T00:52:50.608Z,-0.1
2019-02-11T00:53:39.828Z,-0.2
2019-02-11T00:54:30.436Z,-0.2
2019-02-11T00:55:20.557Z,-0.2
2019-02-11T00:56:10.829Z,-0.2
2019-02-11T00:57:00.615Z,-0.3
2019-02-11T00:57:50.958Z,-0.2
2019-02-11T00:58:40.445Z,-0.3
2019-02-11T00:59:31.088Z,-0.3
2019-02-11T01:00:20.868Z,-0.3
2019-02-11T01:01:11.207Z,-0.3
2019-02-11T01:02:00.958Z,-0.3
2019-02-11T01:02:51.023Z,-0.3
2019-02-11T01:03:41.363Z,-0.3
2019-02-11T01:04:31.147Z,-0.3
2019-02-11T01:05:21.207Z,-0.3
2019-02-11T01:06:10.992Z,-0.4
2019-02-11T01:07:01.385Z,-0.4
2019-02-11T01:07:51.665Z,-0.4
2019-02-11T01:08:41.154Z,-0.4
2019-02-11T01:09:31.485Z,-0.4
2019-02-11T01:10:21.337Z,-0.4
2019-02-11T01:11:11.624Z,-0.4
2019-02-11T01:12:01.384Z,-0.4
2019-02-11T01:12:51.999Z,-0.4
2019-02-11T01:13:41.837Z,-0.4
2019-02-11T01:14:31.304Z,-0.4
2019-02-11T01:15:21.899Z,-0.4
2019-02-11T01:16:12.242Z,-0.4
2019-02-11T01:17:02.022Z,-0.4
2019-02-11T01:17:52.419Z,-0.5
2019-02-11T01:18:42.198Z,-0.5
2019-02-11T01:19:32.197Z,-0.5
2019-02-11T01:20:22.246Z,-0.5
2019-02-11T01:21:12.300Z,-0.5
2019-02-11T01:22:02.367Z,-0.5
2019-02-11T01:22:52.701Z,-0.5
2019-02-11T01:23:42.498Z,-0.4
2019-02-11T01:24:32.830Z,-0.4
2019-02-11T01:25:22.326Z,-0.4
2019-02-11T01:26:12.387Z,-0.4
2019-02-11T01:27:02.991Z,-0.4
2019-02-11T01:27:53.054Z,-0.4
2019-02-11T01:28:43.111Z,-0.4
2019-02-11T01:29:32.893Z,-0.4
2019-02-11T01:30:23.228Z,-0.4
2019-02-11T01:31:12.457Z,-0.4
2019-02-11T01:32:03.055Z,-0.4
2019-02-11T01:32:53.124Z,-0.4
2019-02-11T01:33:43.233Z,-0.4
2019-02-11T01:34:33.255Z,-0.4
2019-02-11T01:35:23.581Z,-0.4
2019-02-11T01:36:13.082Z,-0.4
2019-02-11T01:37:03.147Z,-0.4
2019-02-11T01:37:53.518Z,-0.4
2019-02-11T01:38:43.540Z,-0.4
2019-02-11T01:39:33.310Z,-0.4
2019-02-11T01:40:23.375Z,-0.4
2019-02-11T01:41:13.715Z,-0.4
2019-02-11T01:42:04.045Z,-0.4
2019-02-11T01:42:53.820Z,-0.4
2019-02-11T01:43:44.157Z,-0.4
2019-02-11T01:44:33.660Z,-0.4
2019-02-11T01:45:24.005Z,-0.4
2019-02-11T01:46:14.352Z,-0.4
2019-02-11T01:47:03.892Z,-0.4
2019-02-11T01:47:54.187Z,-0.4
2019-02-11T01:48:44.510Z,-0.4
2019-02-11T01:49:34.583Z,-0.4
2019-02-11T01:50:24.632Z,-0.4
2019-02-11T01:51:14.417Z,-0.4
2019-02-11T01:52:04.255Z,-0.4
2019-02-11T01:52:54.820Z,-0.4
2019-02-11T01:53:44.912Z,-0.4
2019-02-11T01:54:34.927Z,-0.4
2019-02-11T01:55:24.713Z,-0.4
2019-02-11T01:56:14.554Z,-0.4
2019-02-11T01:57:05.102Z,-0.4
2019-02-11T01:57:55.157Z,-0.4
2019-02-11T01:58:44.991Z,-0.4
2019-02-11T01:59:35.282Z,-0.4
2019-02-11T02:00:25.056Z,-0.4
2019-02-11T02:01:15.117Z,-0.3
2019-02-11T02:02:05.176Z,-0.3
2019-02-11T02:02:55.504Z,-0.3
2019-02-11T02:03:45.301Z,-0.3
2019-02-11T02:04:35.619Z,-0.3
2019-02-11T02:05:25.146Z,-0.3
2019-02-11T02:06:15.740Z,-0.3
2019-02-11T02:07:05.528Z,-0.3
2019-02-11T02:07:55.583Z,-0.4
2019-02-11T02:08:45.626Z,-0.4
2019-02-11T02:09:35.708Z,-0.4
2019-02-11T02:10:25.758Z,-0.4
2019-02-11T02:11:15.814Z,-0.4
2019-02-11T02:12:05.881Z,-0.5
2019-02-11T02:12:55.383Z,-0.5
2019-02-11T02:13:47.279Z,-0.5
2019-02-11T02:14:36.045Z,-0.5
2019-02-11T02:15:26.143Z,-0.5
2019-02-11T02:16:16.442Z,-0.5
2019-02-11T02:17:05.949Z,-0.6
2019-02-11T02:17:56.553Z,-0.6
2019-02-11T02:18:46.343Z,-0.6
2019-02-11T02:19:36.115Z,-0.6
2019-02-11T02:20:26.728Z,-0.6
2019-02-11T02:21:16.801Z,-0.6
2019-02-11T02:22:06.302Z,-0.6
2019-02-11T02:22:56.638Z,-0.6
2019-02-11T02:23:46.978Z,-0.6
2019-02-11T02:24:36.472Z,-0.6
2019-02-11T02:25:27.087Z,-0.6
2019-02-11T02:26:16.865Z,-0.6
2019-02-11T02:27:06.935Z,-0.7
2019-02-11T02:27:56.992Z,-0.6
2019-02-11T02:28:47.033Z,-0.6
2019-02-11T02:29:37.099Z,-0.7
2019-02-11T02:30:27.471Z,-0.8
2019-02-11T02:31:16.952Z,-0.8
2019-02-11T02:32:07.034Z,-0.7
2019-02-11T02:32:57.346Z,-0.8
2019-02-11T02:33:47.692Z,-0.8
2019-02-11T02:34:37.504Z,-0.8
2019-02-11T02:35:27.519Z,-0.8
2019-02-11T02:36:17.325Z,-0.8
2019-02-11T02:37:07.919Z,-0.8
2019-02-11T02:37:57.987Z,-0.8
2019-02-11T02:38:48.037Z,-0.8
2019-02-11T02:39:37.802Z,-0.8
2019-02-11T02:40:28.224Z,-0.8
2019-02-11T02:41:17.945Z,-0.9
2019-02-11T02:42:08.014Z,-0.9
2019-02-11T02:42:58.352Z,-0.9
2019-02-11T02:43:58.051Z,-0.9
2019-02-11T02:59:39.218Z,-1
2019-02-11T03:00:29.553Z,-1
2019-02-11T03:01:19.875Z,-1
2019-02-11T03:02:09.147Z,-1
2019-02-11T03:02:59.200Z,-1
2019-02-11T03:03:49.253Z,-1
2019-02-11T03:04:39.593Z,-1
2019-02-11T03:08:11.954Z,-1
2019-02-11T03:09:01.742Z,-1
2019-02-11T03:09:52.104Z,-1
2019-02-11T03:10:42.113Z,-1.1
2019-02-11T03:11:32.199Z,-1.1
2019-02-11T03:12:22.239Z,-1.1
2019-02-11T03:13:12.469Z,-1.1
2019-02-11T03:14:08.660Z,-1.1
2019-02-11T03:14:52.427Z,-1.1
2019-02-11T03:15:42.463Z,-1.1
2019-02-11T03:16:31.995Z,-1.1
2019-02-11T03:17:22.585Z,-1.1
2019-02-11T03:18:12.674Z,-1.1
2019-02-11T03:19:02.168Z,-1.1
2019-02-11T03:19:52.484Z,-1.1
2019-02-11T03:20:42.534Z,-1.1
2019-02-11T03:21:32.874Z,-1.1
2019-02-11T03:22:22.926Z,-1.1
2019-02-11T03:23:12.462Z,-1.1
2019-02-11T03:24:03.056Z,-1.1
2019-02-11T03:24:52.833Z,-1.1
2019-02-11T03:25:42.943Z,-1.1
2019-02-11T03:26:33.218Z,-1.1
2019-02-11T03:27:23.309Z,-1.1
2019-02-11T03:28:13.078Z,-1.2
2019-02-11T03:29:03.401Z,-1.2
2019-02-11T03:29:53.304Z,-1.2
2019-02-11T03:30:43.280Z,-1.2
2019-02-11T03:31:33.675Z,-1.2
2019-02-11T03:32:23.697Z,-1.3
2019-02-11T03:33:13.567Z,-1.3
2019-02-11T03:34:03.804Z,-1.2
2019-02-11T03:34:53.526Z,-1.3
2019-02-11T03:35:43.588Z,-1.3
2019-02-11T03:36:33.709Z,-1.3
2019-02-11T03:37:23.988Z,-1.3
2019-02-11T03:38:13.769Z,-1.3
2019-02-11T03:39:04.126Z,-1.3
2019-02-11T03:39:53.905Z,-1.3
2019-02-11T03:40:44.215Z,-1.4
2019-02-11T03:41:34.001Z,-1.4
2019-02-11T03:42:24.053Z,-1.4
2019-02-11T03:43:14.405Z,-1.4
2019-02-11T03:44:04.457Z,-1.4
2019-02-11T03:44:54.225Z,-1.4
2019-02-11T03:45:44.589Z,-1.4
2019-02-11T03:46:34.635Z,-1.4
2019-02-11T03:47:24.420Z,-1.4
2019-02-11T03:48:14.473Z,-1.4
2019-02-11T03:49:04.348Z,-1.5
2019-02-11T03:49:54.375Z,-1.4
2019-02-11T03:50:44.167Z,-1.4
2019-02-11T03:51:33.942Z,-1.4
2019-02-11T03:52:24.297Z,-1.5
2019-02-11T03:53:15.121Z,-1.5
2019-02-11T03:54:04.676Z,-1.5
2019-02-11T03:54:55.239Z,-1.6
2019-02-11T03:55:44.524Z,-1.6
2019-02-11T03:56:34.598Z,-1.6
2019-02-11T03:57:24.641Z,-1.6
2019-02-11T03:58:14.955Z,-1.6
2019-02-11T03:59:05.513Z,-1.6
2019-02-11T03:59:55.355Z,-1.6
2019-02-11T04:00:45.625Z,-1.6
2019-02-11T04:01:35.397Z,-1.6
2019-02-11T04:02:25.464Z,-1.6
2019-02-11T04:03:15.522Z,-1.6
2019-02-11T04:04:05.600Z,-1.6
2019-02-11T04:04:55.917Z,-1.7
2019-02-11T04:05:45.147Z,-1.7
2019-02-11T04:06:36.040Z,-1.7
2019-02-11T04:07:26.136Z,-1.7
2019-02-11T04:08:16.149Z,-1.7
2019-02-11T04:09:06.242Z,-1.7
2019-02-11T04:09:56.328Z,-1.8
2019-02-11T04:10:46.060Z,-1.7
2019-02-11T04:11:36.103Z,-1.7
2019-02-11T04:12:26.455Z,-1.7
2019-02-11T04:13:15.961Z,-1.7
2019-02-11T04:14:06.294Z,-1.7
2019-02-11T04:14:56.676Z,-1.7
2019-02-11T04:15:46.691Z,-1.8
2019-02-11T04:16:36.450Z,-1.8
2019-02-11T04:17:26.536Z,-1.8
2019-02-11T04:18:16.857Z,-1.8
2019-02-11T04:19:06.971Z,-1.8
2019-02-11T04:19:56.721Z,-1.8
2019-02-11T04:20:49.538Z,-1.8
2019-02-11T04:21:36.842Z,-1.7
2019-02-11T04:22:26.863Z,-1.7
2019-02-11T04:23:17.201Z,-1.8
2019-02-11T04:24:07.329Z,-1.8
2019-02-11T04:24:57.045Z,-1.8
2019-02-11T04:25:47.379Z,-1.8
2019-02-11T04:26:36.876Z,-1.8
2019-02-11T04:27:27.217Z,-1.8
2019-02-11T04:28:17.548Z,-1.8
2019-02-11T04:29:07.617Z,-1.8
2019-02-11T04:29:57.667Z,-1.8
2019-02-11T04:30:47.798Z,-1.8
2019-02-11T04:31:37.532Z,-1.8
2019-02-11T04:32:27.582Z,-1.8
2019-02-11T04:33:17.646Z,-1.8
2019-02-11T04:34:07.682Z,-1.8
2019-02-11T04:34:57.744Z,-1.8
2019-02-11T04:35:48.080Z,-1.8
2019-02-11T04:36:38.194Z,-1.8
2019-02-11T04:37:28.189Z,-1.8
2019-02-11T04:38:18.259Z,-1.8
2019-02-11T04:39:08.311Z,-1.8
2019-02-11T04:39:57.844Z,-1.8
2019-02-11T04:40:48.157Z,-1.8
2019-02-11T04:41:38.193Z,-1.8
2019-02-11T04:42:28.009Z,-1.8
2019-02-11T04:43:18.688Z,-1.8
2019-02-11T04:44:08.673Z,-1.8
2019-02-11T04:44:58.446Z,-1.7
2019-02-11T04:45:48.486Z,-1.8
2019-02-11T04:46:38.829Z,-1.7
2019-02-11T04:47:28.347Z,-1.7
2019-02-11T04:48:18.964Z,-1.7
2019-02-11T04:49:08.466Z,-1.7
2019-02-11T04:49:59.086Z,-1.7
2019-02-11T04:50:49.146Z,-1.7
2019-02-11T04:51:38.908Z,-1.7
2019-02-11T04:52:29.244Z,-1.7
2019-02-11T04:53:19.025Z,-1.7
2019-02-11T04:54:09.431Z,-1.7
2019-02-11T04:54:59.428Z,-1.7
2019-02-11T04:55:49.501Z,-1.7
2019-02-11T04:56:39.268Z,-1.8
2019-02-11T04:57:29.638Z,-1.8
2019-02-11T04:58:19.391Z,-1.8
2019-02-11T04:59:09.468Z,-1.8
2019-02-11T04:59:59.779Z,-1.8
2019-02-11T05:00:49.553Z,-1.8
2019-02-11T05:01:39.626Z,-1.8
2019-02-11T05:02:29.409Z,-1.8
2019-02-11T05:03:20.015Z,-1.8
2019-02-11T05:04:10.073Z,-1.8
2019-02-11T05:05:00.197Z,-1.8
2019-02-11T05:05:50.188Z,-1.8
2019-02-11T05:06:40.323Z,-1.8
2019-02-11T05:07:30.376Z,-1.8
2019-02-11T05:08:20.197Z,-1.8
2019-02-11T05:09:10.447Z,-1.8
2019-02-11T05:10:00.512Z,-1.8
2019-02-11T05:10:50.530Z,-1.8
2019-02-11T05:11:40.613Z,-1.8
2019-02-11T05:12:30.691Z,-1.8
2019-02-11T05:13:20.731Z,-1.8
2019-02-11T05:14:10.778Z,-1.8
2019-02-11T05:15:00.870Z,-1.8
2019-02-11T05:15:50.952Z,-1.8
2019-02-11T05:16:40.669Z,-1.9
2019-02-11T05:17:31.012Z,-1.9
2019-02-11T05:18:21.059Z,-1.8
2019-02-11T05:19:11.118Z,-1.8
2019-02-11T05:20:00.359Z,-1.8
2019-02-11T05:20:51.271Z,-1.8
2019-02-11T05:21:41.024Z,-1.8
2019-02-11T05:22:31.070Z,-1.8
2019-02-11T05:23:21.430Z,-1.8
2019-02-11T05:24:11.481Z,-1.8
2019-02-11T05:25:01.384Z,-1.9
2019-02-11T05:25:51.675Z,-1.9
2019-02-11T05:26:41.656Z,-1.9
2019-02-11T05:27:31.184Z,-1.9
2019-02-11T05:28:21.811Z,-1.9
2019-02-11T05:29:11.554Z,-1.9
2019-02-11T05:30:01.929Z,-1.9
2019-02-11T05:30:51.949Z,-1.9
2019-02-11T05:31:42.012Z,-1.9
2019-02-11T05:32:31.576Z,-1.9
2019-02-11T05:33:22.327Z,-1.9
2019-02-11T05:34:12.191Z,-1.9
2019-02-11T05:35:02.644Z,-1.9
2019-02-11T05:35:52.281Z,-1.9
2019-02-11T05:36:42.339Z,-1.9
2019-02-11T05:37:32.411Z,-1.9
2019-02-11T05:38:22.210Z,-1.9
2019-02-11T05:39:12.260Z,-1.9
2019-02-11T05:40:02.539Z,-1.9
2019-02-11T05:40:52.641Z,-1.9
2019-02-11T05:41:42.703Z,-2
2019-02-11T05:42:32.478Z,-1.9
2019-02-11T05:43:22.837Z,-2
2019-02-11T05:44:12.597Z,-2
2019-02-11T05:45:02.731Z,-2
2019-02-11T05:45:52.973Z,-2
2019-02-11T05:46:43.040Z,-2
2019-02-11T05:47:32.845Z,-2
2019-02-11T05:48:22.348Z,-2.1
2019-02-11T05:49:12.941Z,-2.1
2019-02-11T05:50:03.059Z,-2.1
2019-02-11T05:50:52.790Z,-2
2019-02-11T05:51:43.450Z,-2
2019-02-11T05:52:33.438Z,-2
2019-02-11T05:53:23.227Z,-1.9
2019-02-11T05:54:13.600Z,-1.9
2019-02-11T05:55:03.659Z,-1.9
2019-02-11T05:55:53.414Z,-1.9
2019-02-11T05:56:43.743Z,-1.9
2019-02-11T05:57:33.812Z,-1.9
2019-02-11T05:58:23.861Z,-1.9
2019-02-11T05:59:13.911Z,-1.9
2019-02-11T06:00:04.162Z,-1.9
2019-02-11T06:00:53.744Z,-1.9
2019-02-11T06:01:44.123Z,-1.9
2019-02-11T06:02:33.869Z,-1.9
2019-02-11T06:03:24.256Z,-1.8
2019-02-11T06:04:13.719Z,-1.8
2019-02-11T06:06:11.517Z,-1.8
2019-02-11T06:07:01.833Z,-1.7
2019-02-11T06:07:51.908Z,-1.7
2019-02-11T06:08:41.694Z,-1.6
2019-02-11T06:09:32.018Z,-1.6
2019-02-11T06:10:21.807Z,-1.6
2019-02-11T06:11:11.583Z,-1.5
2019-02-11T06:12:02.188Z,-1.5
2019-02-11T06:12:52.241Z,-1.4
2019-02-11T06:13:42.016Z,-1.4
2019-02-11T06:14:31.806Z,-1.3
2019-02-11T06:15:22.406Z,-1.3
2019-02-11T06:16:12.223Z,-1.1
2019-02-11T06:17:02.542Z,-1
2019-02-11T06:17:52.122Z,-0.9
2019-02-11T06:18:42.197Z,-0.8
2019-02-11T06:19:32.421Z,-0.6
2019-02-11T06:20:22.818Z,-0.4
2019-02-11T06:21:12.810Z,-0.2
2019-02-11T06:22:02.878Z,0
2019-02-11T06:22:52.951Z,0.3
2019-02-11T06:23:42.994Z,0.6
2019-02-11T06:24:33.050Z,1
2019-02-11T06:25:23.174Z,1.5
2019-02-11T06:26:13.167Z,2.2
2019-02-11T06:27:02.830Z,2.9
2019-02-11T06:27:53.294Z,3.7
2019-02-11T06:28:43.366Z,4.5
2019-02-11T06:29:33.138Z,5.4
2019-02-11T06:30:22.927Z,6.2
2019-02-11T06:31:13.252Z,7
2019-02-11T06:32:03.665Z,7.8
2019-02-11T06:32:53.365Z,8.5
2019-02-11T06:33:43.432Z,9.1
2019-02-11T06:34:35.345Z,9.7
2019-02-11T06:35:23.562Z,10.2
2019-02-11T06:36:14.810Z,10.6
2019-02-11T06:37:03.666Z,10.9
2019-02-11T06:37:53.990Z,11.3
2019-02-11T06:38:43.787Z,11.6
2019-02-11T06:39:34.104Z,11.9
2019-02-11T06:40:24.191Z,12.1
2019-02-11T06:41:13.949Z,12.3
2019-02-11T06:42:04.006Z,12.5
2019-02-11T06:42:54.064Z,12.6
2019-02-11T06:43:44.116Z,12.8
2019-02-11T06:44:34.504Z,12.8
2019-02-11T06:45:24.508Z,12.9
2019-02-11T06:46:14.572Z,12.9
2019-02-11T06:47:04.637Z,12.9
2019-02-11T06:47:54.709Z,13
2019-02-11T06:48:44.476Z,13
2019-02-11T06:49:34.536Z,13
2019-02-11T06:50:24.596Z,12.9
2019-02-11T06:51:14.386Z,12.9
2019-02-11T06:52:04.695Z,12.9
2019-02-11T06:52:54.821Z,12.9
2019-02-11T06:53:44.812Z,12.8
2019-02-11T06:54:34.925Z,12.8
2019-02-11T06:55:24.661Z,12.8
2019-02-11T06:56:14.455Z,12.7
2019-02-11T06:57:06.461Z,12.6
2019-02-11T06:57:55.390Z,12.6
2019-02-11T06:58:45.173Z,12.5
2019-02-11T06:59:35.504Z,12.4
2019-02-11T07:00:25.625Z,12.4
2019-02-11T07:01:15.064Z,12.3
2019-02-11T07:02:05.673Z,12.3
2019-02-11T07:02:54.921Z,12.3
2019-02-11T07:03:45.248Z,12.2
2019-02-11T07:06:11.733Z,12.2
2019-02-11T07:07:01.787Z,12.2
2019-02-11T07:07:51.567Z,12.2
2019-02-11T07:08:41.905Z,12.3
2019-02-11T07:09:31.964Z,12.3
2019-02-11T07:10:22.026Z,12.4
2019-02-11T07:11:11.567Z,12.6
2019-02-11T07:12:01.595Z,12.9
2019-02-11T07:12:52.200Z,13.4
2019-02-11T07:13:41.983Z,14.3
2019-02-11T07:14:32.312Z,15.2
2019-02-11T07:15:24.256Z,16.1
2019-02-11T07:16:12.434Z,16.9
2019-02-11T07:17:01.937Z,17.4
2019-02-11T07:17:52.279Z,17.7
2019-02-11T07:18:42.339Z,18.1
2019-02-11T07:19:32.649Z,18.4
2019-02-11T07:21:12.494Z,19
2019-02-11T07:22:02.826Z,19.3
2019-02-11T07:22:52.903Z,19.6
2019-02-11T07:23:42.666Z,19.8
2019-02-11T07:24:33.004Z,19.9
2019-02-11T07:25:23.082Z,20
2019-02-11T07:26:13.114Z,20
2019-02-11T07:27:02.899Z,20.1
2019-02-11T07:27:53.242Z,20.3
2019-02-11T07:28:43.309Z,20.5
2019-02-11T07:29:33.071Z,20.9
2019-02-11T07:31:13.426Z,21.4
2019-02-11T07:32:03.527Z,21.6
2019-02-11T07:32:53.586Z,21.8
2019-02-11T07:33:43.103Z,22.1
2019-02-11T07:34:33.151Z,22.6
2019-02-11T07:35:23.771Z,23.1
2019-02-11T07:36:13.839Z,23.6
2019-02-11T07:37:03.891Z,24
2019-02-11T07:37:54.013Z,24.2
2019-02-11T07:38:43.494Z,24.4
2019-02-11T07:39:34.066Z,24.5
2019-02-11T07:40:23.588Z,24.6
2019-02-11T07:41:13.873Z,24.6
2019-02-11T07:42:06.186Z,24.6
2019-02-11T07:42:53.716Z,24.6
2019-02-11T07:43:44.372Z,24.9
2019-02-11T07:44:33.835Z,25.3
2019-02-11T07:45:32.425Z,25.9
2019-02-11T07:46:14.501Z,26.8
2019-02-11T07:47:04.273Z,27.1
2019-02-11T07:47:54.081Z,27.6
2019-02-11T07:48:44.405Z,27.8
2019-02-11T07:49:34.465Z,27.9
2019-02-11T07:50:24.802Z,28.1
2019-02-11T07:51:14.847Z,28.4
2019-02-11T07:52:04.910Z,28.8
2019-02-11T07:52:54.685Z,29.1
2019-02-11T07:53:45.017Z,29.6
2019-02-11T07:54:35.129Z,30.3
2019-02-11T07:55:24.572Z,31.3
2019-02-11T07:56:15.255Z,32.2
2019-02-11T07:57:05.000Z,32.9
2019-02-11T07:57:55.034Z,33.6
2019-02-11T07:58:45.087Z,34
2019-02-11T07:59:35.439Z,34.3
2019-02-11T08:00:25.490Z,34.4
2019-02-11T08:01:14.995Z,34.4
2019-02-11T08:02:05.325Z,34.4
2019-02-11T08:02:55.674Z,34.4
2019-02-11T08:03:45.454Z,34.3
2019-02-11T08:04:35.771Z,34.3
2019-02-11T08:05:25.567Z,34.1
2019-02-11T08:06:15.909Z,34
2019-02-11T08:07:05.456Z,33.9
2019-02-11T08:07:56.009Z,33.9
2019-02-11T08:08:46.069Z,33.9
2019-02-11T08:09:36.121Z,34.2
2019-02-11T08:10:26.173Z,34.4
2019-02-11T08:11:16.246Z,34.8
2019-02-11T08:12:05.811Z,35.4
2019-02-11T08:12:56.088Z,36.2
2019-02-11T08:13:46.128Z,37.3
2019-02-11T08:14:36.465Z,38.3
2019-02-11T08:15:25.983Z,39.3
2019-02-11T08:16:16.596Z,39.8
2019-02-11T08:17:06.640Z,39.9
2019-02-11T08:17:58.586Z,40
2019-02-11T08:18:46.755Z,39.9
2019-02-11T08:19:36.821Z,39.8
2019-02-11T08:20:26.890Z,39.6
2019-02-11T08:21:16.935Z,39.4
2019-02-11T08:22:06.450Z,39.3
2019-02-11T08:22:56.773Z,39.3
2019-02-11T08:23:46.831Z,39.3
2019-02-11T08:24:37.170Z,39.4
2019-02-11T08:25:26.967Z,39.6
2019-02-11T08:26:16.991Z,39.8
2019-02-11T08:27:07.090Z,40.3
2019-02-11T08:27:56.862Z,40.8
2019-02-11T08:28:47.450Z,41.3
2019-02-11T08:29:37.262Z,41.9
2019-02-11T08:30:27.300Z,42.7
2019-02-11T08:31:17.622Z,43.8
2019-02-11T08:32:07.672Z,45.2
2019-02-11T08:32:57.745Z,46.6
2019-02-11T08:33:47.514Z,48.2
2019-02-11T08:34:37.893Z,49.8
2019-02-11T08:35:29.303Z,51.2
2019-02-11T08:36:17.635Z,52.6
2019-02-11T08:37:08.085Z,53.7
2019-02-11T08:37:57.807Z,54.6
2019-02-11T08:38:48.132Z,55.2
2019-02-11T08:39:38.196Z,55.4
2019-02-11T08:40:27.422Z,55.5
2019-02-11T08:41:18.321Z,55.7
2019-02-11T08:42:08.376Z,56.1
2019-02-11T08:42:58.156Z,56.6
2019-02-11T08:43:48.483Z,56.9
2019-02-11T08:44:38.270Z,57.1
2019-02-11T08:45:28.606Z,57.4
2019-02-11T08:46:18.118Z,58.1
2019-02-11T08:47:08.449Z,58.8
2019-02-11T08:47:58.506Z,59.4
2019-02-11T08:48:48.554Z,59.8
2019-02-11T08:49:38.743Z,60.3
2019-02-11T08:50:29.190Z,60.5
2019-02-11T08:51:18.998Z,60.9
2019-02-11T08:52:08.784Z,61.4
2019-02-11T08:52:58.841Z,62.1
2019-02-11T08:53:48.898Z,62.9
2019-02-11T08:54:39.236Z,63.9
2019-02-11T08:55:29.294Z,64.6
2019-02-11T08:56:19.075Z,64.8
2019-02-11T08:57:09.126Z,64.6
2019-02-11T08:57:59.458Z,64.4
2019-02-11T08:58:49.246Z,64
2019-02-11T08:59:39.308Z,63.7
2019-02-11T09:00:29.369Z,63.2
2019-02-11T09:01:19.466Z,62.8
2019-02-11T09:02:09.476Z,62.3
2019-02-11T09:02:59.835Z,62
2019-02-11T09:03:49.596Z,61.6
2019-02-11T09:04:39.941Z,61
2019-02-11T09:05:29.723Z,60.2
2019-02-11T09:06:19.958Z,59.4
2019-02-11T09:07:09.560Z,58.7
2019-02-11T09:08:01.877Z,58.3
2019-02-11T09:08:50.215Z,58.2
2019-02-11T09:09:40.052Z,58.3
2019-02-11T09:11:20.137Z,59
2019-02-11T09:12:10.480Z,59.7
2019-02-11T09:13:00.242Z,60.6
2019-02-11T09:13:50.290Z,61.6
2019-02-11T09:14:40.367Z,62.4
2019-02-11T09:15:30.686Z,63
2019-02-11T09:16:20.749Z,63.6
2019-02-11T09:17:12.921Z,64.4
2019-02-11T09:18:00.867Z,65.2
2019-02-11T09:18:50.354Z,65.9
2019-02-11T09:19:40.969Z,66.5
2019-02-11T09:20:30.752Z,66.8
2019-02-11T09:21:20.814Z,66.9
2019-02-11T09:22:10.860Z,66.6
2019-02-11T09:23:00.652Z,66.3
2019-02-11T09:23:51.272Z,65.9
2019-02-11T09:24:41.036Z,65.6
2019-02-11T09:25:31.374Z,65.4
2019-02-11T09:26:21.170Z,65
2019-02-11T09:27:11.484Z,64.8
2019-02-11T09:28:01.544Z,64.5
2019-02-11T09:28:51.354Z,64.1
2019-02-11T09:29:41.651Z,63.8
2019-02-11T09:30:30.976Z,63.2
2019-02-11T09:31:21.225Z,62.7
2019-02-11T09:32:11.291Z,62.2
2019-02-11T09:33:01.344Z,61.8
2019-02-11T09:33:51.750Z,61.3
2019-02-11T09:34:41.481Z,60.5
2019-02-11T09:35:32.078Z,59.9
2019-02-11T09:36:21.872Z,59.3
2019-02-11T09:37:11.940Z,58.7
2019-02-11T09:38:02.258Z,58.1
2019-02-11T09:38:51.766Z,57.4
2019-02-11T09:39:42.417Z,56.9
2019-02-11T09:40:31.892Z,56.4
2019-02-11T09:41:22.476Z,55.9
2019-02-11T09:42:12.316Z,55.4
2019-02-11T09:43:02.328Z,54.9
2019-02-11T09:43:52.401Z,54.4
2019-02-11T09:44:42.703Z,53.9
2019-02-11T09:45:32.495Z,53.4
2019-02-11T09:46:22.552Z,52.9
2019-02-11T09:47:12.898Z,52.6
2019-02-11T09:48:02.678Z,52.3
2019-02-11T09:49:43.065Z,51.5
2019-02-11T09:50:32.845Z,51.1
2019-02-11T09:51:23.179Z,50.7
2019-02-11T09:52:12.966Z,50.3
2019-02-11T09:53:02.754Z,49.9
2019-02-11T09:53:53.087Z,49.6
2019-02-11T09:54:43.133Z,49.1
2019-02-11T09:55:33.179Z,48.6
2019-02-11T09:56:23.521Z,47.9
2019-02-11T09:57:13.570Z,47.5
2019-02-11T09:58:03.662Z,47.2
2019-02-11T09:58:53.270Z,46.8
2019-02-11T09:59:43.752Z,46.3
2019-02-11T10:00:33.264Z,45.9
2019-02-11T10:01:23.934Z,45.4
2019-02-11T10:02:13.934Z,44.9
2019-02-11T10:03:03.744Z,44.4
2019-02-11T10:03:53.514Z,44
2019-02-11T10:04:44.106Z,43.7
2019-02-11T10:07:11.298Z,42.9
2019-02-11T10:08:01.684Z,42.6
2019-02-11T10:08:51.709Z,42.3
2019-02-11T10:09:41.741Z,42
2019-02-11T10:10:31.814Z,41.7
2019-02-11T10:11:21.296Z,41.4
2019-02-11T10:12:11.441Z,41.1
2019-02-11T10:13:01.986Z,40.7
2019-02-11T10:13:52.035Z,40.5
2019-02-11T10:14:41.865Z,40.3
2019-02-11T10:15:31.891Z,39.9
2019-02-11T10:16:23.508Z,39.6
2019-02-11T10:17:12.263Z,39.2
2019-02-11T10:18:02.323Z,38.8
2019-02-11T10:18:52.382Z,38.3
2019-02-11T10:19:42.443Z,37.9
2019-02-11T10:20:32.232Z,37.5
2019-02-11T10:21:22.548Z,37.1
2019-02-11T10:22:12.333Z,36.7
2019-02-11T10:23:02.686Z,36.4
2019-02-11T10:23:52.730Z,36.2
2019-02-11T10:24:42.785Z,35.9
2019-02-11T10:25:32.575Z,35.6
2019-02-11T10:26:22.910Z,35.3
2019-02-11T10:27:12.687Z,34.9
2019-02-11T10:28:03.017Z,34.6
2019-02-11T10:28:52.808Z,34.3
2019-02-11T10:29:42.590Z,34
2019-02-11T10:30:32.933Z,33.8
2019-02-11T10:31:23.254Z,33.4
2019-02-11T10:32:13.339Z,33.1
2019-02-11T10:33:02.829Z,32.9
2019-02-11T10:33:53.422Z,32.8
2019-02-11T10:34:43.259Z,32.7
2019-02-11T10:35:41.827Z,32.4
2019-02-11T10:36:23.321Z,32.3
2019-02-11T10:37:13.372Z,32.1
2019-02-11T10:38:03.158Z,31.9
2019-02-11T10:38:52.952Z,31.8
2019-02-11T10:39:43.857Z,31.5
2019-02-11T10:40:33.622Z,31.1
2019-02-11T10:41:23.944Z,30.8
2019-02-11T10:42:14.047Z,30.6
2019-02-11T10:43:03.854Z,30.4
2019-02-11T10:43:54.131Z,30.3
2019-02-11T10:44:43.904Z,30.1
2019-02-11T10:45:38.754Z,30
2019-02-11T10:46:24.018Z,29.8
2019-02-11T10:47:13.511Z,29.7
2019-02-11T10:48:04.427Z,29.6
2019-02-11T10:48:54.203Z,29.4
2019-02-11T10:49:44.521Z,29.3
2019-02-11T10:50:34.666Z,29.1
2019-02-11T10:51:24.369Z,28.9
2019-02-11T10:52:14.696Z,28.8
2019-02-11T10:53:04.484Z,28.6
2019-02-11T10:53:54.554Z,28.3
2019-02-11T10:54:44.881Z,28
2019-02-11T10:55:34.663Z,27.9
2019-02-11T10:56:24.721Z,27.8
2019-02-11T10:57:14.778Z,27.6
2019-02-11T10:58:05.219Z,27.4
2019-02-11T10:58:54.941Z,27.3
2019-02-11T10:59:45.000Z,27.2
2019-02-11T11:00:35.280Z,27.1
2019-02-11T11:01:26.363Z,26.9
2019-02-11T11:02:14.860Z,26.9
2019-02-11T11:03:05.481Z,26.8
2019-02-11T11:03:55.235Z,26.6
2019-02-11T11:04:45.570Z,26.5
2019-02-11T11:05:35.355Z,26.4
2019-02-11T11:06:25.737Z,26.3
2019-02-11T11:07:15.755Z,26.3
2019-02-11T11:08:05.815Z,26.1
2019-02-11T11:08:55.867Z,26
2019-02-11T11:09:45.928Z,25.9
2019-02-11T11:10:35.972Z,25.8
2019-02-11T11:11:26.034Z,25.8
2019-02-11T11:12:15.279Z,25.6
2019-02-11T11:13:05.883Z,25.6
2019-02-11T11:13:55.944Z,25.4
2019-02-11T11:14:45.471Z,25.4
2019-02-11T11:15:36.344Z,25.3
2019-02-11T11:16:32.067Z,25.1
2019-02-11T11:17:16.452Z,25
2019-02-11T11:18:06.225Z,24.9
2019-02-11T11:18:56.567Z,24.8
2019-02-11T11:19:46.073Z,24.8
2019-02-11T11:20:35.847Z,24.6
2019-02-11T11:21:26.264Z,24.6
2019-02-11T11:22:16.792Z,24.5
2019-02-11T11:23:06.861Z,24.4
2019-02-11T11:23:56.439Z,24.3
2019-02-11T11:24:46.697Z,24.1
2019-02-11T11:25:37.033Z,24
2019-02-11T11:26:27.089Z,23.9
2019-02-11T11:27:18.764Z,23.8
2019-02-11T11:28:07.216Z,23.6
2019-02-11T11:28:57.256Z,23.6
2019-02-11T11:29:47.313Z,23.4
2019-02-11T11:30:37.111Z,23.3
2019-02-11T11:31:27.148Z,23.1
2019-02-11T11:32:17.488Z,22.9
2019-02-11T11:33:07.793Z,22.8
2019-02-11T11:33:57.056Z,22.6
2019-02-11T11:34:47.338Z,22.6
2019-02-11T11:35:37.461Z,22.4
2019-02-11T11:36:27.260Z,22.3